sensor_id;sensor_type;location;lat;lon;timestamp;P1;durP1;ratioP1;P2;durP2;ratioP2
5841;SDS011;2947;52.276;9.946;2023-06-26T00:01:26;9.57;;;6.30;;
5841;SDS011;2947;52.276;9.946;2023-06-26T00:03:59;7.93;;;6.32;;
5841;SDS011;2947;52.276;9.946;2023-06-26T00:06:25;10.48;;;6.18;;
5841;SDS011;2947;52.276;9.946;2023-06-26T00:08:52;9.35;;;6.28;;
5841;SDS011;2947;52.276;9.946;2023-06-26T00:11:19;9.75;;;6.68;;
5841;SDS011;2947;52.276;9.946;2023-06-26T00:13:46;8.65;;;5.90;;
5841;SDS011;2947;52.276;9.946;2023-06-26T00:16:12;8.00;;;6.22;;
5841;SDS011;2947;52.276;9.946;2023-06-26T00:18:38;10.70;;;5.43;;
5841;SDS011;2947;52.276;9.946;2023-06-26T00:21:04;8.93;;;6.57;;
5841;SDS011;2947;52.276;9.946;2023-06-26T00:23:29;9.82;;;7.47;;
5841;SDS011;2947;52.276;9.946;2023-06-26T00:25:57;7.97;;;6.25;;
5841;SDS011;2947;52.276;9.946;2023-06-26T00:28:22;8.32;;;5.95;;
5841;SDS011;2947;52.276;9.946;2023-06-26T00:30:48;9.75;;;6.40;;
5841;SDS011;2947;52.276;9.946;2023-06-26T00:33:14;8.75;;;5.60;;
5841;SDS011;2947;52.276;9.946;2023-06-26T00:35:40;7.65;;;5.88;;
5841;SDS011;2947;52.276;9.946;2023-06-26T00:38:06;11.07;;;6.40;;
5841;SDS011;2947;52.276;9.946;2023-06-26T00:40:31;8.82;;;5.97;;
5841;SDS011;2947;52.276;9.946;2023-06-26T00:42:57;9.30;;;6.25;;
5841;SDS011;2947;52.276;9.946;2023-06-26T00:45:23;7.72;;;6.20;;
5841;SDS011;2947;52.276;9.946;2023-06-26T00:47:48;9.27;;;7.18;;
5841;SDS011;2947;52.276;9.946;2023-06-26T00:50:14;8.80;;;6.10;;
5841;SDS011;2947;52.276;9.946;2023-06-26T00:52:41;7.90;;;6.13;;
5841;SDS011;2947;52.276;9.946;2023-06-26T00:55:06;13.75;;;6.40;;
5841;SDS011;2947;52.276;9.946;2023-06-26T00:57:33;10.23;;;5.95;;
5841;SDS011;2947;52.276;9.946;2023-06-26T00:59:58;9.57;;;6.43;;
5841;SDS011;2947;52.276;9.946;2023-06-26T01:02:25;14.13;;;6.53;;
5841;SDS011;2947;52.276;9.946;2023-06-26T01:04:58;8.60;;;6.70;;
5841;SDS011;2947;52.276;9.946;2023-06-26T01:07:25;9.73;;;7.07;;
5841;SDS011;2947;52.276;9.946;2023-06-26T01:09:51;7.57;;;5.47;;
5841;SDS011;2947;52.276;9.946;2023-06-26T01:12:17;9.25;;;5.97;;
5841;SDS011;2947;52.276;9.946;2023-06-26T01:14:43;9.57;;;6.20;;
5841;SDS011;2947;52.276;9.946;2023-06-26T01:17:09;8.75;;;6.05;;
5841;SDS011;2947;52.276;9.946;2023-06-26T01:19:39;9.90;;;6.25;;
5841;SDS011;2947;52.276;9.946;2023-06-26T01:25:21;8.80;;;6.25;;
5841;SDS011;2947;52.276;9.946;2023-06-26T01:27:57;9.93;;;6.50;;
5841;SDS011;2947;52.276;9.946;2023-06-26T01:30:23;9.82;;;6.22;;
5841;SDS011;2947;52.276;9.946;2023-06-26T01:32:50;7.53;;;6.10;;
5841;SDS011;2947;52.276;9.946;2023-06-26T01:35:16;9.85;;;6.45;;
5841;SDS011;2947;52.276;9.946;2023-06-26T01:37:42;9.52;;;5.95;;
5841;SDS011;2947;52.276;9.946;2023-06-26T01:40:08;8.23;;;6.18;;
5841;SDS011;2947;52.276;9.946;2023-06-26T01:42:35;9.27;;;6.53;;
5841;SDS011;2947;52.276;9.946;2023-06-26T01:45:02;7.45;;;5.50;;
5841;SDS011;2947;52.276;9.946;2023-06-26T01:47:37;8.15;;;6.15;;
5841;SDS011;2947;52.276;9.946;2023-06-26T01:50:08;8.52;;;6.03;;
5841;SDS011;2947;52.276;9.946;2023-06-26T01:55:46;9.43;;;6.47;;
5841;SDS011;2947;52.276;9.946;2023-06-26T01:58:17;7.82;;;5.85;;
5841;SDS011;2947;52.276;9.946;2023-06-26T02:00:45;9.73;;;6.05;;
5841;SDS011;2947;52.276;9.946;2023-06-26T02:03:12;8.43;;;5.43;;
5841;SDS011;2947;52.276;9.946;2023-06-26T02:05:37;8.55;;;5.95;;
5841;SDS011;2947;52.276;9.946;2023-06-26T02:08:03;9.25;;;5.70;;
5841;SDS011;2947;52.276;9.946;2023-06-26T02:10:29;8.50;;;5.70;;
5841;SDS011;2947;52.276;9.946;2023-06-26T02:12:55;8.52;;;6.30;;
5841;SDS011;2947;52.276;9.946;2023-06-26T02:15:21;8.63;;;6.07;;
5841;SDS011;2947;52.276;9.946;2023-06-26T02:17:47;10.45;;;6.93;;
5841;SDS011;2947;52.276;9.946;2023-06-26T02:20:13;10.18;;;5.72;;
5841;SDS011;2947;52.276;9.946;2023-06-26T02:22:40;11.73;;;6.35;;
5841;SDS011;2947;52.276;9.946;2023-06-26T02:25:07;8.07;;;6.07;;
5841;SDS011;2947;52.276;9.946;2023-06-26T02:27:33;10.85;;;5.95;;
5841;SDS011;2947;52.276;9.946;2023-06-26T02:29:59;9.00;;;5.78;;
5841;SDS011;2947;52.276;9.946;2023-06-26T02:32:25;9.35;;;5.40;;
5841;SDS011;2947;52.276;9.946;2023-06-26T02:34:50;9.20;;;6.22;;
5841;SDS011;2947;52.276;9.946;2023-06-26T02:37:19;11.57;;;6.35;;
5841;SDS011;2947;52.276;9.946;2023-06-26T02:39:45;9.95;;;6.30;;
5841;SDS011;2947;52.276;9.946;2023-06-26T02:42:11;11.27;;;5.72;;
5841;SDS011;2947;52.276;9.946;2023-06-26T02:44:37;6.70;;;4.95;;
5841;SDS011;2947;52.276;9.946;2023-06-26T02:47:02;9.93;;;6.20;;
5841;SDS011;2947;52.276;9.946;2023-06-26T02:49:28;11.55;;;5.60;;
5841;SDS011;2947;52.276;9.946;2023-06-26T02:51:54;7.85;;;4.85;;
5841;SDS011;2947;52.276;9.946;2023-06-26T02:54:20;8.25;;;5.57;;
5841;SDS011;2947;52.276;9.946;2023-06-26T02:56:45;9.68;;;5.25;;
5841;SDS011;2947;52.276;9.946;2023-06-26T02:59:11;8.20;;;5.43;;
5841;SDS011;2947;52.276;9.946;2023-06-26T03:01:37;10.48;;;4.88;;
5841;SDS011;2947;52.276;9.946;2023-06-26T03:04:03;6.57;;;4.50;;
5841;SDS011;2947;52.276;9.946;2023-06-26T03:06:29;8.65;;;4.93;;
5841;SDS011;2947;52.276;9.946;2023-06-26T03:08:55;11.02;;;5.40;;
5841;SDS011;2947;52.276;9.946;2023-06-26T03:11:21;11.55;;;5.13;;
5841;SDS011;2947;52.276;9.946;2023-06-26T03:13:46;7.35;;;5.00;;
5841;SDS011;2947;52.276;9.946;2023-06-26T03:16:12;8.15;;;5.00;;
5841;SDS011;2947;52.276;9.946;2023-06-26T03:18:38;9.52;;;4.78;;
5841;SDS011;2947;52.276;9.946;2023-06-26T03:21:03;10.35;;;4.65;;
5841;SDS011;2947;52.276;9.946;2023-06-26T03:23:29;8.05;;;4.90;;
5841;SDS011;2947;52.276;9.946;2023-06-26T03:25:55;10.52;;;4.97;;
5841;SDS011;2947;52.276;9.946;2023-06-26T03:28:21;9.95;;;5.57;;
5841;SDS011;2947;52.276;9.946;2023-06-26T03:30:46;8.23;;;5.53;;
5841;SDS011;2947;52.276;9.946;2023-06-26T03:33:12;7.00;;;5.07;;
5841;SDS011;2947;52.276;9.946;2023-06-26T03:35:38;6.80;;;4.53;;
5841;SDS011;2947;52.276;9.946;2023-06-26T03:38:04;8.07;;;4.45;;
5841;SDS011;2947;52.276;9.946;2023-06-26T03:40:30;7.40;;;4.60;;
5841;SDS011;2947;52.276;9.946;2023-06-26T03:42:56;8.68;;;5.57;;
5841;SDS011;2947;52.276;9.946;2023-06-26T03:45:21;8.55;;;4.30;;
5841;SDS011;2947;52.276;9.946;2023-06-26T03:47:47;10.43;;;5.40;;
5841;SDS011;2947;52.276;9.946;2023-06-26T03:50:14;9.00;;;4.38;;
5841;SDS011;2947;52.276;9.946;2023-06-26T03:52:43;8.68;;;4.75;;
5841;SDS011;2947;52.276;9.946;2023-06-26T03:55:09;8.43;;;4.78;;
5841;SDS011;2947;52.276;9.946;2023-06-26T03:57:35;7.15;;;4.93;;
5841;SDS011;2947;52.276;9.946;2023-06-26T04:00:01;8.73;;;5.10;;
5841;SDS011;2947;52.276;9.946;2023-06-26T04:02:33;7.35;;;4.93;;
5841;SDS011;2947;52.276;9.946;2023-06-26T04:05:00;9.95;;;5.80;;
5841;SDS011;2947;52.276;9.946;2023-06-26T04:07:26;7.28;;;5.00;;
5841;SDS011;2947;52.276;9.946;2023-06-26T04:09:52;9.82;;;4.78;;
5841;SDS011;2947;52.276;9.946;2023-06-26T04:12:17;8.60;;;4.55;;
5841;SDS011;2947;52.276;9.946;2023-06-26T04:14:43;6.97;;;4.82;;
5841;SDS011;2947;52.276;9.946;2023-06-26T04:17:09;7.90;;;5.00;;
5841;SDS011;2947;52.276;9.946;2023-06-26T04:19:35;9.60;;;5.38;;
5841;SDS011;2947;52.276;9.946;2023-06-26T04:22:01;8.00;;;4.75;;
5841;SDS011;2947;52.276;9.946;2023-06-26T04:24:27;8.15;;;5.78;;
5841;SDS011;2947;52.276;9.946;2023-06-26T04:26:53;7.50;;;4.90;;
5841;SDS011;2947;52.276;9.946;2023-06-26T04:29:25;7.50;;;4.75;;
5841;SDS011;2947;52.276;9.946;2023-06-26T04:31:52;7.75;;;5.30;;
5841;SDS011;2947;52.276;9.946;2023-06-26T04:34:22;7.63;;;4.85;;
5841;SDS011;2947;52.276;9.946;2023-06-26T04:36:49;8.63;;;5.30;;
5841;SDS011;2947;52.276;9.946;2023-06-26T04:39:15;8.20;;;5.20;;
5841;SDS011;2947;52.276;9.946;2023-06-26T04:41:41;7.93;;;5.32;;
5841;SDS011;2947;52.276;9.946;2023-06-26T04:44:07;10.27;;;5.13;;
5841;SDS011;2947;52.276;9.946;2023-06-26T04:46:33;8.30;;;5.45;;
5841;SDS011;2947;52.276;9.946;2023-06-26T04:48:59;9.35;;;5.25;;
5841;SDS011;2947;52.276;9.946;2023-06-26T04:51:25;7.70;;;5.20;;
5841;SDS011;2947;52.276;9.946;2023-06-26T04:53:52;8.30;;;5.70;;
5841;SDS011;2947;52.276;9.946;2023-06-26T04:56:17;8.50;;;5.10;;
5841;SDS011;2947;52.276;9.946;2023-06-26T04:58:43;8.55;;;5.25;;
5841;SDS011;2947;52.276;9.946;2023-06-26T05:01:09;9.00;;;5.28;;
5841;SDS011;2947;52.276;9.946;2023-06-26T05:03:35;7.07;;;5.38;;
5841;SDS011;2947;52.276;9.946;2023-06-26T05:06:01;10.43;;;5.63;;
5841;SDS011;2947;52.276;9.946;2023-06-26T05:08:27;10.30;;;5.15;;
5841;SDS011;2947;52.276;9.946;2023-06-26T05:10:53;7.82;;;5.35;;
5841;SDS011;2947;52.276;9.946;2023-06-26T05:13:22;12.23;;;4.65;;
5841;SDS011;2947;52.276;9.946;2023-06-26T05:15:49;9.88;;;6.13;;
5841;SDS011;2947;52.276;9.946;2023-06-26T05:18:15;7.53;;;5.35;;
5841;SDS011;2947;52.276;9.946;2023-06-26T05:20:41;8.68;;;4.88;;
5841;SDS011;2947;52.276;9.946;2023-06-26T05:23:07;7.70;;;5.10;;
5841;SDS011;2947;52.276;9.946;2023-06-26T05:25:33;9.55;;;5.80;;
5841;SDS011;2947;52.276;9.946;2023-06-26T05:27:59;7.45;;;4.63;;
5841;SDS011;2947;52.276;9.946;2023-06-26T05:30:26;6.82;;;5.10;;
5841;SDS011;2947;52.276;9.946;2023-06-26T05:32:54;6.78;;;5.10;;
5841;SDS011;2947;52.276;9.946;2023-06-26T05:35:20;8.27;;;5.18;;
5841;SDS011;2947;52.276;9.946;2023-06-26T05:37:48;7.18;;;4.88;;
5841;SDS011;2947;52.276;9.946;2023-06-26T05:40:17;9.15;;;4.53;;
5841;SDS011;2947;52.276;9.946;2023-06-26T05:42:43;9.52;;;5.45;;
5841;SDS011;2947;52.276;9.946;2023-06-26T05:45:10;7.55;;;5.40;;
5841;SDS011;2947;52.276;9.946;2023-06-26T05:47:36;8.60;;;4.80;;
5841;SDS011;2947;52.276;9.946;2023-06-26T05:50:02;6.15;;;4.40;;
5841;SDS011;2947;52.276;9.946;2023-06-26T05:52:29;10.65;;;5.25;;
5841;SDS011;2947;52.276;9.946;2023-06-26T05:54:55;7.90;;;5.32;;
5841;SDS011;2947;52.276;9.946;2023-06-26T05:57:25;7.82;;;4.60;;
5841;SDS011;2947;52.276;9.946;2023-06-26T05:59:53;7.00;;;4.80;;
5841;SDS011;2947;52.276;9.946;2023-06-26T06:02:19;20.98;;;4.85;;
5841;SDS011;2947;52.276;9.946;2023-06-26T06:04:45;9.25;;;4.72;;
5841;SDS011;2947;52.276;9.946;2023-06-26T06:07:11;7.07;;;4.60;;
5841;SDS011;2947;52.276;9.946;2023-06-26T06:09:37;12.25;;;5.07;;
5841;SDS011;2947;52.276;9.946;2023-06-26T06:12:03;9.15;;;5.00;;
5841;SDS011;2947;52.276;9.946;2023-06-26T06:14:33;8.82;;;4.93;;
5841;SDS011;2947;52.276;9.946;2023-06-26T06:16:59;10.73;;;5.60;;
5841;SDS011;2947;52.276;9.946;2023-06-26T06:19:25;11.88;;;5.30;;
5841;SDS011;2947;52.276;9.946;2023-06-26T06:21:51;11.52;;;5.03;;
5841;SDS011;2947;52.276;9.946;2023-06-26T06:24:17;11.85;;;5.85;;
5841;SDS011;2947;52.276;9.946;2023-06-26T06:26:42;7.78;;;5.07;;
5841;SDS011;2947;52.276;9.946;2023-06-26T06:29:08;8.05;;;6.20;;
5841;SDS011;2947;52.276;9.946;2023-06-26T06:31:34;7.40;;;5.00;;
5841;SDS011;2947;52.276;9.946;2023-06-26T06:33:59;6.85;;;4.93;;
5841;SDS011;2947;52.276;9.946;2023-06-26T06:36:25;8.77;;;5.60;;
5841;SDS011;2947;52.276;9.946;2023-06-26T06:38:51;8.25;;;5.32;;
5841;SDS011;2947;52.276;9.946;2023-06-26T06:41:16;9.23;;;4.85;;
5841;SDS011;2947;52.276;9.946;2023-06-26T06:43:42;22.92;;;5.00;;
5841;SDS011;2947;52.276;9.946;2023-06-26T06:46:08;7.63;;;5.07;;
5841;SDS011;2947;52.276;9.946;2023-06-26T06:48:34;9.85;;;5.00;;
5841;SDS011;2947;52.276;9.946;2023-06-26T06:50:59;7.70;;;5.35;;
5841;SDS011;2947;52.276;9.946;2023-06-26T06:53:25;8.57;;;5.45;;
5841;SDS011;2947;52.276;9.946;2023-06-26T06:55:51;7.78;;;5.10;;
5841;SDS011;2947;52.276;9.946;2023-06-26T06:58:19;11.63;;;5.10;;
5841;SDS011;2947;52.276;9.946;2023-06-26T07:00:45;8.82;;;5.00;;
5841;SDS011;2947;52.276;9.946;2023-06-26T07:03:11;11.38;;;4.80;;
5841;SDS011;2947;52.276;9.946;2023-06-26T07:05:36;7.07;;;4.75;;
5841;SDS011;2947;52.276;9.946;2023-06-26T07:08:03;9.35;;;5.35;;
5841;SDS011;2947;52.276;9.946;2023-06-26T07:10:29;10.65;;;4.88;;
5841;SDS011;2947;52.276;9.946;2023-06-26T07:12:56;8.63;;;5.28;;
5841;SDS011;2947;52.276;9.946;2023-06-26T07:15:21;6.72;;;5.18;;
5841;SDS011;2947;52.276;9.946;2023-06-26T07:17:47;7.43;;;4.78;;
5841;SDS011;2947;52.276;9.946;2023-06-26T07:20:13;7.68;;;5.22;;
5841;SDS011;2947;52.276;9.946;2023-06-26T07:22:42;14.10;;;5.63;;
5841;SDS011;2947;52.276;9.946;2023-06-26T07:25:09;9.90;;;5.32;;
5841;SDS011;2947;52.276;9.946;2023-06-26T07:27:36;8.07;;;5.45;;
5841;SDS011;2947;52.276;9.946;2023-06-26T07:30:03;10.30;;;5.47;;
5841;SDS011;2947;52.276;9.946;2023-06-26T07:32:29;8.70;;;4.97;;
5841;SDS011;2947;52.276;9.946;2023-06-26T07:34:55;7.57;;;4.88;;
5841;SDS011;2947;52.276;9.946;2023-06-26T07:37:21;7.90;;;4.50;;
5841;SDS011;2947;52.276;9.946;2023-06-26T07:39:47;7.63;;;5.20;;
5841;SDS011;2947;52.276;9.946;2023-06-26T07:42:14;12.15;;;5.20;;
5841;SDS011;2947;52.276;9.946;2023-06-26T07:44:41;8.43;;;5.65;;
5841;SDS011;2947;52.276;9.946;2023-06-26T07:47:08;8.23;;;5.38;;
5841;SDS011;2947;52.276;9.946;2023-06-26T07:49:33;7.45;;;5.45;;
5841;SDS011;2947;52.276;9.946;2023-06-26T07:51:59;10.65;;;4.95;;
5841;SDS011;2947;52.276;9.946;2023-06-26T07:54:25;8.20;;;6.05;;
5841;SDS011;2947;52.276;9.946;2023-06-26T07:59:27;8.57;;;5.53;;
5841;SDS011;2947;52.276;9.946;2023-06-26T08:01:55;8.30;;;6.25;;
5841;SDS011;2947;52.276;9.946;2023-06-26T08:04:23;10.27;;;5.43;;
5841;SDS011;2947;52.276;9.946;2023-06-26T08:06:52;11.23;;;5.25;;
5841;SDS011;2947;52.276;9.946;2023-06-26T08:09:20;7.03;;;5.03;;
5841;SDS011;2947;52.276;9.946;2023-06-26T08:11:48;8.68;;;5.95;;
5841;SDS011;2947;52.276;9.946;2023-06-26T08:14:15;9.68;;;5.85;;
5841;SDS011;2947;52.276;9.946;2023-06-26T08:16:43;6.75;;;4.72;;
5841;SDS011;2947;52.276;9.946;2023-06-26T08:19:10;11.88;;;5.55;;
5841;SDS011;2947;52.276;9.946;2023-06-26T08:21:42;9.68;;;6.13;;
5841;SDS011;2947;52.276;9.946;2023-06-26T08:24:09;8.10;;;5.68;;
5841;SDS011;2947;52.276;9.946;2023-06-26T08:26:36;8.82;;;5.68;;
5841;SDS011;2947;52.276;9.946;2023-06-26T08:29:03;14.15;;;5.47;;
5841;SDS011;2947;52.276;9.946;2023-06-26T08:31:34;7.57;;;5.47;;
5841;SDS011;2947;52.276;9.946;2023-06-26T08:34:04;7.10;;;5.22;;
5841;SDS011;2947;52.276;9.946;2023-06-26T08:36:32;7.88;;;5.72;;
5841;SDS011;2947;52.276;9.946;2023-06-26T08:38:59;8.77;;;5.72;;
5841;SDS011;2947;52.276;9.946;2023-06-26T08:41:25;11.20;;;6.38;;
5841;SDS011;2947;52.276;9.946;2023-06-26T08:43:54;7.63;;;5.70;;
5841;SDS011;2947;52.276;9.946;2023-06-26T08:46:24;7.40;;;5.30;;
5841;SDS011;2947;52.276;9.946;2023-06-26T08:49:00;8.73;;;6.10;;
5841;SDS011;2947;52.276;9.946;2023-06-26T08:51:41;9.05;;;5.72;;
5841;SDS011;2947;52.276;9.946;2023-06-26T08:54:16;9.82;;;5.95;;
5841;SDS011;2947;52.276;9.946;2023-06-26T08:56:48;8.07;;;5.47;;
5841;SDS011;2947;52.276;9.946;2023-06-26T08:59:16;10.15;;;6.50;;
5841;SDS011;2947;52.276;9.946;2023-06-26T09:01:44;11.52;;;5.82;;
5841;SDS011;2947;52.276;9.946;2023-06-26T09:04:10;8.15;;;5.68;;
5841;SDS011;2947;52.276;9.946;2023-06-26T09:06:37;9.07;;;5.53;;
5841;SDS011;2947;52.276;9.946;2023-06-26T09:09:04;11.27;;;6.03;;
5841;SDS011;2947;52.276;9.946;2023-06-26T09:11:30;10.13;;;5.20;;
5841;SDS011;2947;52.276;9.946;2023-06-26T09:13:58;9.05;;;5.72;;
5841;SDS011;2947;52.276;9.946;2023-06-26T09:16:25;9.07;;;6.65;;
5841;SDS011;2947;52.276;9.946;2023-06-26T09:18:55;15.00;;;6.70;;
5841;SDS011;2947;52.276;9.946;2023-06-26T09:21:21;12.25;;;6.70;;
5841;SDS011;2947;52.276;9.946;2023-06-26T09:23:51;12.77;;;6.97;;
5841;SDS011;2947;52.276;9.946;2023-06-26T09:26:21;12.10;;;6.38;;
5841;SDS011;2947;52.276;9.946;2023-06-26T09:28:48;11.75;;;5.85;;
5841;SDS011;2947;52.276;9.946;2023-06-26T09:31:15;8.68;;;6.38;;
5841;SDS011;2947;52.276;9.946;2023-06-26T09:33:42;12.90;;;6.45;;
5841;SDS011;2947;52.276;9.946;2023-06-26T09:36:19;11.02;;;7.80;;
5841;SDS011;2947;52.276;9.946;2023-06-26T09:38:46;11.90;;;7.85;;
5841;SDS011;2947;52.276;9.946;2023-06-26T09:41:15;13.18;;;6.68;;
5841;SDS011;2947;52.276;9.946;2023-06-26T09:43:49;11.38;;;7.35;;
5841;SDS011;2947;52.276;9.946;2023-06-26T09:46:16;10.05;;;7.10;;
5841;SDS011;2947;52.276;9.946;2023-06-26T09:48:57;14.25;;;7.03;;
5841;SDS011;2947;52.276;9.946;2023-06-26T09:51:29;16.90;;;7.38;;
5841;SDS011;2947;52.276;9.946;2023-06-26T09:53:57;11.18;;;6.90;;
5841;SDS011;2947;52.276;9.946;2023-06-26T09:56:24;12.30;;;7.15;;
5841;SDS011;2947;52.276;9.946;2023-06-26T09:58:50;13.00;;;6.97;;
5841;SDS011;2947;52.276;9.946;2023-06-26T10:01:17;10.70;;;7.07;;
5841;SDS011;2947;52.276;9.946;2023-06-26T10:03:43;8.88;;;6.32;;
5841;SDS011;2947;52.276;9.946;2023-06-26T10:06:10;12.30;;;7.65;;
5841;SDS011;2947;52.276;9.946;2023-06-26T10:08:39;9.00;;;7.00;;
5841;SDS011;2947;52.276;9.946;2023-06-26T10:11:07;12.35;;;7.13;;
5841;SDS011;2947;52.276;9.946;2023-06-26T10:13:42;12.32;;;6.88;;
5841;SDS011;2947;52.276;9.946;2023-06-26T10:16:11;9.32;;;6.93;;
5841;SDS011;2947;52.276;9.946;2023-06-26T10:18:41;13.35;;;6.75;;
5841;SDS011;2947;52.276;9.946;2023-06-26T10:21:08;12.10;;;8.98;;
5841;SDS011;2947;52.276;9.946;2023-06-26T10:23:36;14.27;;;9.52;;
5841;SDS011;2947;52.276;9.946;2023-06-26T10:26:05;16.20;;;9.30;;
5841;SDS011;2947;52.276;9.946;2023-06-26T10:28:33;14.40;;;8.73;;
5841;SDS011;2947;52.276;9.946;2023-06-26T10:31:02;12.82;;;9.52;;
5841;SDS011;2947;52.276;9.946;2023-06-26T10:33:30;14.77;;;10.10;;
5841;SDS011;2947;52.276;9.946;2023-06-26T10:36:13;13.77;;;9.65;;
5841;SDS011;2947;52.276;9.946;2023-06-26T10:38:54;14.63;;;9.57;;
5841;SDS011;2947;52.276;9.946;2023-06-26T10:41:22;14.77;;;8.68;;
5841;SDS011;2947;52.276;9.946;2023-06-26T10:43:50;15.50;;;8.80;;
5841;SDS011;2947;52.276;9.946;2023-06-26T10:46:48;17.60;;;10.13;;
5841;SDS011;2947;52.276;9.946;2023-06-26T10:49:18;16.02;;;9.88;;
5841;SDS011;2947;52.276;9.946;2023-06-26T10:51:49;17.00;;;10.30;;
5841;SDS011;2947;52.276;9.946;2023-06-26T10:54:16;16.55;;;9.80;;
5841;SDS011;2947;52.276;9.946;2023-06-26T10:56:47;16.63;;;9.93;;
5841;SDS011;2947;52.276;9.946;2023-06-26T10:59:16;12.88;;;8.45;;
5841;SDS011;2947;52.276;9.946;2023-06-26T11:01:47;13.60;;;8.35;;
5841;SDS011;2947;52.276;9.946;2023-06-26T11:04:39;12.00;;;7.40;;
5841;SDS011;2947;52.276;9.946;2023-06-26T11:07:25;14.07;;;7.15;;
5841;SDS011;2947;52.276;9.946;2023-06-26T11:12:39;11.43;;;6.93;;
5841;SDS011;2947;52.276;9.946;2023-06-26T11:15:13;20.02;;;8.65;;
5841;SDS011;2947;52.276;9.946;2023-06-26T11:17:40;12.52;;;7.47;;
5841;SDS011;2947;52.276;9.946;2023-06-26T11:20:09;14.35;;;8.20;;
5841;SDS011;2947;52.276;9.946;2023-06-26T11:22:37;10.48;;;7.93;;
5841;SDS011;2947;52.276;9.946;2023-06-26T11:25:06;12.27;;;8.25;;
5841;SDS011;2947;52.276;9.946;2023-06-26T11:30:05;18.88;;;8.00;;
5841;SDS011;2947;52.276;9.946;2023-06-26T11:32:33;16.65;;;8.55;;
5841;SDS011;2947;52.276;9.946;2023-06-26T11:35:00;21.77;;;8.38;;
5841;SDS011;2947;52.276;9.946;2023-06-26T11:37:26;17.48;;;8.95;;
5841;SDS011;2947;52.276;9.946;2023-06-26T11:39:52;24.27;;;8.45;;
5841;SDS011;2947;52.276;9.946;2023-06-26T11:42:19;16.48;;;8.20;;
5841;SDS011;2947;52.276;9.946;2023-06-26T11:44:46;14.27;;;8.73;;
5841;SDS011;2947;52.276;9.946;2023-06-26T11:47:15;15.85;;;9.65;;
5841;SDS011;2947;52.276;9.946;2023-06-26T11:49:44;11.75;;;7.70;;
5841;SDS011;2947;52.276;9.946;2023-06-26T11:52:11;13.80;;;8.85;;
5841;SDS011;2947;52.276;9.946;2023-06-26T11:54:37;17.98;;;7.68;;
5841;SDS011;2947;52.276;9.946;2023-06-26T11:57:04;11.65;;;7.68;;
5841;SDS011;2947;52.276;9.946;2023-06-26T11:59:37;13.73;;;8.25;;
5841;SDS011;2947;52.276;9.946;2023-06-26T12:02:07;12.25;;;7.78;;
5841;SDS011;2947;52.276;9.946;2023-06-26T12:04:36;13.25;;;8.38;;
5841;SDS011;2947;52.276;9.946;2023-06-26T12:07:04;15.93;;;8.63;;
5841;SDS011;2947;52.276;9.946;2023-06-26T12:09:33;19.92;;;9.00;;
5841;SDS011;2947;52.276;9.946;2023-06-26T12:12:04;11.07;;;8.63;;
5841;SDS011;2947;52.276;9.946;2023-06-26T12:14:30;13.70;;;9.30;;
5841;SDS011;2947;52.276;9.946;2023-06-26T12:17:03;12.95;;;8.18;;
5841;SDS011;2947;52.276;9.946;2023-06-26T12:19:33;16.70;;;8.80;;
5841;SDS011;2947;52.276;9.946;2023-06-26T12:22:05;11.25;;;6.72;;
5841;SDS011;2947;52.276;9.946;2023-06-26T12:24:32;13.48;;;7.32;;
5841;SDS011;2947;52.276;9.946;2023-06-26T12:26:57;16.48;;;6.50;;
5841;SDS011;2947;52.276;9.946;2023-06-26T12:29:31;11.93;;;5.07;;
5841;SDS011;2947;52.276;9.946;2023-06-26T12:31:58;8.27;;;4.68;;
5841;SDS011;2947;52.276;9.946;2023-06-26T12:34:32;8.95;;;4.45;;
5841;SDS011;2947;52.276;9.946;2023-06-26T12:37:03;10.15;;;4.72;;
5841;SDS011;2947;52.276;9.946;2023-06-26T12:39:49;8.18;;;4.25;;
5841;SDS011;2947;52.276;9.946;2023-06-26T12:42:23;9.43;;;3.75;;
5841;SDS011;2947;52.276;9.946;2023-06-26T12:44:51;8.45;;;4.22;;
5841;SDS011;2947;52.276;9.946;2023-06-26T12:47:18;14.15;;;4.15;;
5841;SDS011;2947;52.276;9.946;2023-06-26T12:49:50;9.55;;;3.17;;
5841;SDS011;2947;52.276;9.946;2023-06-26T12:52:17;5.28;;;3.20;;
5841;SDS011;2947;52.276;9.946;2023-06-26T12:54:46;8.65;;;3.97;;
5841;SDS011;2947;52.276;9.946;2023-06-26T12:57:18;6.40;;;4.60;;
5841;SDS011;2947;52.276;9.946;2023-06-26T12:59:44;6.65;;;3.63;;
5841;SDS011;2947;52.276;9.946;2023-06-26T13:02:10;14.07;;;3.17;;
5841;SDS011;2947;52.276;9.946;2023-06-26T13:04:39;7.90;;;4.15;;
5841;SDS011;2947;52.276;9.946;2023-06-26T13:07:09;10.48;;;3.90;;
5841;SDS011;2947;52.276;9.946;2023-06-26T13:09:35;7.53;;;3.40;;
5841;SDS011;2947;52.276;9.946;2023-06-26T13:12:02;7.18;;;3.45;;
5841;SDS011;2947;52.276;9.946;2023-06-26T13:14:31;7.90;;;3.20;;
5841;SDS011;2947;52.276;9.946;2023-06-26T13:16:57;9.50;;;3.30;;
5841;SDS011;2947;52.276;9.946;2023-06-26T13:19:25;6.35;;;3.22;;
5841;SDS011;2947;52.276;9.946;2023-06-26T13:21:50;9.10;;;4.70;;
5841;SDS011;2947;52.276;9.946;2023-06-26T13:24:16;5.88;;;3.33;;
5841;SDS011;2947;52.276;9.946;2023-06-26T13:26:42;5.15;;;3.00;;
5841;SDS011;2947;52.276;9.946;2023-06-26T13:29:08;5.30;;;2.95;;
5841;SDS011;2947;52.276;9.946;2023-06-26T13:31:33;9.80;;;3.15;;
5841;SDS011;2947;52.276;9.946;2023-06-26T13:33:59;5.90;;;2.70;;
5841;SDS011;2947;52.276;9.946;2023-06-26T13:36:28;4.55;;;2.88;;
5841;SDS011;2947;52.276;9.946;2023-06-26T13:38:54;9.23;;;3.15;;
5841;SDS011;2947;52.276;9.946;2023-06-26T13:41:23;11.98;;;2.97;;
5841;SDS011;2947;52.276;9.946;2023-06-26T13:43:50;12.75;;;3.33;;
5841;SDS011;2947;52.276;9.946;2023-06-26T13:46:16;5.82;;;2.50;;
5841;SDS011;2947;52.276;9.946;2023-06-26T13:48:43;8.10;;;2.50;;
5841;SDS011;2947;52.276;9.946;2023-06-26T13:51:10;6.60;;;2.67;;
5841;SDS011;2947;52.276;9.946;2023-06-26T13:53:35;5.95;;;2.67;;
5841;SDS011;2947;52.276;9.946;2023-06-26T13:56:01;7.00;;;2.85;;
5841;SDS011;2947;52.276;9.946;2023-06-26T13:58:27;12.30;;;2.67;;
5841;SDS011;2947;52.276;9.946;2023-06-26T14:00:54;4.78;;;2.15;;
5841;SDS011;2947;52.276;9.946;2023-06-26T14:03:20;4.20;;;2.22;;
5841;SDS011;2947;52.276;9.946;2023-06-26T14:05:46;4.88;;;2.20;;
5841;SDS011;2947;52.276;9.946;2023-06-26T14:08:12;4.40;;;2.00;;
5841;SDS011;2947;52.276;9.946;2023-06-26T14:10:38;3.63;;;1.85;;
5841;SDS011;2947;52.276;9.946;2023-06-26T14:13:04;4.85;;;2.35;;
5841;SDS011;2947;52.276;9.946;2023-06-26T14:15:30;7.10;;;2.55;;
5841;SDS011;2947;52.276;9.946;2023-06-26T14:17:56;4.97;;;1.90;;
5841;SDS011;2947;52.276;9.946;2023-06-26T14:20:22;6.57;;;2.47;;
5841;SDS011;2947;52.276;9.946;2023-06-26T14:22:48;4.47;;;2.10;;
5841;SDS011;2947;52.276;9.946;2023-06-26T14:25:14;8.07;;;2.25;;
5841;SDS011;2947;52.276;9.946;2023-06-26T14:27:41;6.15;;;2.15;;
5841;SDS011;2947;52.276;9.946;2023-06-26T14:30:07;5.30;;;1.92;;
5841;SDS011;2947;52.276;9.946;2023-06-26T14:32:34;4.43;;;2.15;;
5841;SDS011;2947;52.276;9.946;2023-06-26T14:35:00;4.40;;;2.40;;
5841;SDS011;2947;52.276;9.946;2023-06-26T14:37:28;5.22;;;2.70;;
5841;SDS011;2947;52.276;9.946;2023-06-26T14:39:55;4.15;;;2.25;;
5841;SDS011;2947;52.276;9.946;2023-06-26T14:42:22;5.22;;;2.17;;
5841;SDS011;2947;52.276;9.946;2023-06-26T14:44:47;4.38;;;1.90;;
5841;SDS011;2947;52.276;9.946;2023-06-26T14:47:15;7.63;;;2.53;;
5841;SDS011;2947;52.276;9.946;2023-06-26T14:49:42;5.07;;;2.78;;
5841;SDS011;2947;52.276;9.946;2023-06-26T14:52:08;6.82;;;2.20;;
5841;SDS011;2947;52.276;9.946;2023-06-26T14:54:34;4.53;;;2.00;;
5841;SDS011;2947;52.276;9.946;2023-06-26T14:57:02;6.07;;;2.05;;
5841;SDS011;2947;52.276;9.946;2023-06-26T14:59:29;6.60;;;2.60;;
5841;SDS011;2947;52.276;9.946;2023-06-26T15:01:54;6.25;;;2.20;;
5841;SDS011;2947;52.276;9.946;2023-06-26T15:04:20;4.40;;;1.85;;
5841;SDS011;2947;52.276;9.946;2023-06-26T15:06:46;5.72;;;2.25;;
5841;SDS011;2947;52.276;9.946;2023-06-26T15:09:12;4.72;;;2.00;;
5841;SDS011;2947;52.276;9.946;2023-06-26T15:11:38;7.97;;;2.10;;
5841;SDS011;2947;52.276;9.946;2023-06-26T15:14:03;4.72;;;2.03;;
5841;SDS011;2947;52.276;9.946;2023-06-26T15:16:29;5.50;;;2.00;;
5841;SDS011;2947;52.276;9.946;2023-06-26T15:18:55;6.18;;;2.20;;
5841;SDS011;2947;52.276;9.946;2023-06-26T15:21:21;8.02;;;2.53;;
5841;SDS011;2947;52.276;9.946;2023-06-26T15:23:47;7.65;;;1.80;;
5841;SDS011;2947;52.276;9.946;2023-06-26T15:26:13;3.90;;;1.90;;